Hc Nadja Maria — V2AV4 — position and weather

sailwx.info

Track history (hours):
 
Tides and Currents Weather Stations Pressure Air Temp Water Temp Dewpoint Dewpoint Depression Visibility Wind Speed Wind Dir Waves Ship Positions

Hc Nadja Maria

Last reported at 2016-Jun-30 22:33 UTC. Time now 2016-Jun-30 23:10 UTC.
Position N 54°01' E 007°49'.

Length 130 m; draft 7.3 m.

Type: Cargo ship. MMSI: 304204000.

Date/timePositionNaut miles runAvg speedWind from/ knotsBaromVisibWave heightAir tempDewpointWater temp
2016-Jun-30 22:33N 54°01' E 007°49'1414.3
2016-Jun-30 21:33N 54°01' E 008°14'1413.6
2016-Jun-30 20:31N 53°58' E 008°37'1010.9
2016-Jun-30 19:33N 53°50' E 008°50'1110.9
2016-Jun-30 18:34N 53°53' E 009°08'9 9.3
2016-Jun-30 17:33N 53°49' E 009°22'1413.6
2016-Jun-30 16:33N 53°37' E 009°34'1212.4
2016-Jun-30 15:33N 53°33' E 009°53'3 3.3
2016-Jun-30 14:31N 53°32' E 009°59'0 0.0
2016-Jun-30 13:31N 53°32' E 009°59'0 0.0
2016-Jun-30 12:31N 53°32' E 009°59'0 0.0
2016-Jun-30 11:31N 53°32' E 009°59'0 0.0
2016-Jun-30 10:31N 53°32' E 009°59'0 0.0
2016-Jun-30 09:31N 53°32' E 009°59'0 0.0
2016-Jun-30 08:31N 53°32' E 009°59'0 0.0
2016-Jun-30 07:31N 53°32' E 009°59'0 0.0
2016-Jun-30 06:31N 53°32' E 009°59'0 0.0
2016-Jun-30 05:31N 53°32' E 009°59'0 0.0
2016-Jun-30 04:31N 53°32' E 009°59'0 0.0
2016-Jun-30 03:31N 53°32' E 009°59'0 0.0
2016-Jun-30 02:31N 53°32' E 009°59'0 0.0
2016-Jun-30 01:31N 53°32' E 009°59'0 0.0
2016-Jun-30 00:31N 53°32' E 009°59'0 0.0
2016-Jun-29 23:31N 53°32' E 009°59'0 0.0
2016-Jun-29 22:31N 53°32' E 009°59'0 0.0
2016-Jun-29 21:31N 53°32' E 009°59'0 0.0
2016-Jun-29 20:31N 53°32' E 009°59'0 0.0
2016-Jun-29 19:31N 53°32' E 009°59'0 0.0
2016-Jun-29 18:31N 53°32' E 009°59'0 0.0
2016-Jun-29 17:31N 53°32' E 009°59'0 0.0
2016-Jun-29 16:31N 53°32' E 009°59'0 0.0
2016-Jun-29 15:31N 53°32' E 009°59'0 0.0
2016-Jun-29 14:31N 53°32' E 009°59'0 0.0
2016-Jun-29 13:31N 53°32' E 009°59'0 0.0
2016-Jun-29 12:31N 53°32' E 009°59'0 0.0
2016-Jun-29 11:31N 53°32' E 009°59'0 0.0
2016-Jun-29 10:31N 53°32' E 009°59'0 0.0
2016-Jun-29 09:31N 53°32' E 009°59'0 0.1
2016-Jun-29 08:34N 53°32' E 009°59'9 8.6
2016-Jun-29 07:34N 53°34' E 009°45'1312.7
2016-Jun-29 06:34N 53°42' E 009°29'1515.1
2016-Jun-29 05:33N 53°53' E 009°11'1515.1
2016-Jun-29 04:33N 53°51' E 008°45'1515.2
2016-Jun-29 03:33N 53°59' E 008°23'1111.0
2016-Jun-29 02:33N 53°60' E 008°05'3 2.8
2016-Jun-29 01:26N 54°02' E 008°08'0 0.1
2016-Jun-29 00:29N 54°02' E 008°08'0 0.0
2016-Jun-28 23:32N 54°02' E 008°08'0 0.0
2016-Jun-28 22:32N 54°02' E 008°08'0 0.0
2016-Jun-28 21:32N 54°02' E 008°08'1 1.5
2016-Jun-28 20:33N 54°02' E 008°05'1212.2
2016-Jun-28 19:33N 53°57' E 007°46'1312.6
2016-Jun-28 18:33N 53°54' E 007°26'1313.0
2016-Jun-28 17:33N 53°51' E 007°04'1313.4
2016-Jun-28 16:34N 53°48' E 006°42'1414.0
2016-Jun-28 15:33N 53°44' E 006°19'1414.4
2016-Jun-28 14:33N 53°39' E 005°56'1514.9
2016-Jun-28 13:33N 53°35' E 005°32'1515.1
2016-Jun-28 12:34N 53°30' E 005°08'3514.7
2016-Jun-28 10:12N 53°06' E 004°26'1115.6
2016-Jun-28 09:32N 52°57' E 004°18'1715.3
2016-Jun-28 08:23N 52°42' E 004°02'1815.0
2016-Jun-28 07:10N 52°29' E 003°42'4114.1
2016-Jun-28 04:16N 51°50' E 003°19'1210.2
2016-Jun-28 03:07N 51°38' E 003°21'711.8
2016-Jun-28 02:33N 51°32' E 003°25'9 9.2
2016-Jun-28 01:34N 51°26' E 003°36'1212.1
2016-Jun-28 00:33N 51°22' E 003°54'1010.2
2016-Jun-27 23:34N 51°24' E 004°10'5 5.2
2016-Jun-27 22:34N 51°21' E 004°17'0 0.0
2016-Jun-27 21:33N 51°21' E 004°17'1 0.8
2016-Jun-27 20:33N 51°20' E 004°18'6 5.6
2016-Jun-27 19:33N 51°16' E 004°23'0 0.3
2016-Jun-27 18:31N 51°15' E 004°24'0 0.0
2016-Jun-27 17:31N 51°15' E 004°24'0 0.0
2016-Jun-27 16:31N 51°15' E 004°24'0 0.0
2016-Jun-27 15:31N 51°15' E 004°24'0 0.0
2016-Jun-27 14:31N 51°15' E 004°24'0 0.0
2016-Jun-27 13:31N 51°15' E 004°24'0 0.0
2016-Jun-27 12:31N 51°15' E 004°24'0 0.0
2016-Jun-27 11:31N 51°15' E 004°24'0 0.0
2016-Jun-27 10:31N 51°15' E 004°24'0 0.0
2016-Jun-27 09:31N 51°15' E 004°24'0 0.0
2016-Jun-27 08:31N 51°15' E 004°24'0 0.0
2016-Jun-27 07:31N 51°15' E 004°24'0 0.0
2016-Jun-27 06:31N 51°15' E 004°24'0 0.0
2016-Jun-27 05:31N 51°15' E 004°24'0 0.0
2016-Jun-27 04:31N 51°15' E 004°24'0 0.0
2016-Jun-27 03:31N 51°15' E 004°24'0 0.0
2016-Jun-27 02:31N 51°15' E 004°24'0 0.0
2016-Jun-27 01:31N 51°15' E 004°24'0 0.0
2016-Jun-27 00:31N 51°15' E 004°24'0 0.0
2016-Jun-26 23:31N 51°15' E 004°24'0 0.0
2016-Jun-26 22:31N 51°15' E 004°24'0 0.0
2016-Jun-26 21:31N 51°15' E 004°24'0 0.0
2016-Jun-26 20:31N 51°15' E 004°24'0 0.0
2016-Jun-26 19:31N 51°15' E 004°24'0 0.0
2016-Jun-26 18:31N 51°15' E 004°24'0 0.0
2016-Jun-26 17:28N 51°15' E 004°24'0 0.0
2016-Jun-26 16:31N 51°15' E 004°24'0 0.0
2016-Jun-26 15:31N 51°15' E 004°24'0 0.0
2016-Jun-26 14:31N 51°15' E 004°24'0 0.0
2016-Jun-26 13:31N 51°15' E 004°24'0 0.0
2016-Jun-26 12:31N 51°15' E 004°24'0 0.0
2016-Jun-26 11:31N 51°15' E 004°24'0 0.0
2016-Jun-26 10:31N 51°15' E 004°24'0 0.0
2016-Jun-26 09:31N 51°15' E 004°24'0 0.0
2016-Jun-26 08:31N 51°15' E 004°24'0 0.0
2016-Jun-26 07:31N 51°15' E 004°24'0 0.0
2016-Jun-26 06:31N 51°15' E 004°24'0 0.0
2016-Jun-26 05:31N 51°15' E 004°24'0 0.0
2016-Jun-26 04:31N 51°15' E 004°24'0 0.0
2016-Jun-26 03:31N 51°15' E 004°24'0 0.0
2016-Jun-26 02:31N 51°15' E 004°24'0 0.0
2016-Jun-26 01:31N 51°15' E 004°24'0 0.0
2016-Jun-26 00:31N 51°15' E 004°24'0 0.0
2016-Jun-25 23:31N 51°15' E 004°24'0 0.0
2016-Jun-25 22:31N 51°15' E 004°24'0 0.0
2016-Jun-25 21:31N 51°15' E 004°24'0 0.0
2016-Jun-25 20:31N 51°15' E 004°24'0 0.0
2016-Jun-25 19:31N 51°15' E 004°24'0 0.0
2016-Jun-25 18:31N 51°15' E 004°24'0 0.0
2016-Jun-25 17:31N 51°15' E 004°24'0 0.0
2016-Jun-25 16:31N 51°15' E 004°24'0 0.0
2016-Jun-25 15:31N 51°15' E 004°24'0 0.0
2016-Jun-25 14:31N 51°15' E 004°24'0 0.0
2016-Jun-25 13:31N 51°15' E 004°24'0 0.0
2016-Jun-25 12:28N 51°15' E 004°24'0 0.0
2016-Jun-25 11:31N 51°15' E 004°24'0 0.0
2016-Jun-25 10:31N 51°15' E 004°24'0 0.0
2016-Jun-25 09:31N 51°15' E 004°24'0 0.0
2016-Jun-25 08:31N 51°15' E 004°24'0 0.0
2016-Jun-25 07:31N 51°15' E 004°24'0 0.0
2016-Jun-25 06:31N 51°15' E 004°24'0 0.0
2016-Jun-25 05:31N 51°15' E 004°24'0 0.0
2016-Jun-25 04:31N 51°15' E 004°24'0 0.0
2016-Jun-25 03:31N 51°15' E 004°24'0 0.0
2016-Jun-25 02:31N 51°15' E 004°24'0 0.0
2016-Jun-25 01:31N 51°15' E 004°24'0 0.0
2016-Jun-25 00:31N 51°15' E 004°24'0 0.0
2016-Jun-24 23:31N 51°15' E 004°24'0 0.0
2016-Jun-24 22:31N 51°15' E 004°24'0 0.0
2016-Jun-24 21:31N 51°15' E 004°24'0 0.0
2016-Jun-24 20:31N 51°15' E 004°24'0 0.0
2016-Jun-24 19:31N 51°15' E 004°24'0 0.0
2016-Jun-24 18:31N 51°15' E 004°24'0 0.0
2016-Jun-24 17:31N 51°15' E 004°24'0 0.0
2016-Jun-24 16:31N 51°15' E 004°24'0 0.0
2016-Jun-24 15:31N 51°15' E 004°24'0 0.0
2016-Jun-24 14:31N 51°15' E 004°24'0 0.0
2016-Jun-24 13:31N 51°15' E 004°24'0 0.0
2016-Jun-24 12:31N 51°15' E 004°24'0 0.0
2016-Jun-24 11:31N 51°15' E 004°24'0 0.0
2016-Jun-24 10:31N 51°15' E 004°24'0 0.0
2016-Jun-24 09:31N 51°15' E 004°24'0 0.0
2016-Jun-24 08:31N 51°15' E 004°24'0 0.0
2016-Jun-24 07:31N 51°15' E 004°24'0 0.0
2016-Jun-24 04:31N 51°15' E 004°24'0 0.0
2016-Jun-24 03:31N 51°15' E 004°24'0 0.0
2016-Jun-24 02:31N 51°15' E 004°24'0 0.0
2016-Jun-24 01:31N 51°15' E 004°24'0 0.0
2016-Jun-24 00:31N 51°15' E 004°24'0 0.0
2016-Jun-23 23:31N 51°15' E 004°24'0 0.0
2016-Jun-23 22:31N 51°15' E 004°24'0 0.0
2016-Jun-23 21:31N 51°15' E 004°24'0 0.0
2016-Jun-23 20:28N 51°15' E 004°24'0 0.0
2016-Jun-23 19:31N 51°15' E 004°24'0 0.0
2016-Jun-23 18:31N 51°15' E 004°24'0 0.0
2016-Jun-23 17:31N 51°15' E 004°24'0 0.0
2016-Jun-23 16:31N 51°15' E 004°24'0 0.0
2016-Jun-23 15:28N 51°15' E 004°24'0 0.0
2016-Jun-23 14:31N 51°15' E 004°24'0 0.0
2016-Jun-23 13:31N 51°15' E 004°24'0 0.0
2016-Jun-23 12:31N 51°15' E 004°24'0 0.0
2016-Jun-23 11:31N 51°15' E 004°24'0 0.0
2016-Jun-23 10:31N 51°15' E 004°24'0 0.0
2016-Jun-23 09:31N 51°15' E 004°24'0 0.0
2016-Jun-23 08:31N 51°15' E 004°24'0 0.0
2016-Jun-23 07:31N 51°15' E 004°24'0 0.0
2016-Jun-23 05:31N 51°15' E 004°24'0 0.0
2016-Jun-23 04:31N 51°15' E 004°24'0 0.0
2016-Jun-23 03:31N 51°15' E 004°24'0 0.0
2016-Jun-23 02:31N 51°15' E 004°24'0 0.0
2016-Jun-23 01:31N 51°15' E 004°24'0 0.0
2016-Jun-23 00:31N 51°15' E 004°24'0 0.0
2016-Jun-22 23:31N 51°15' E 004°24'0 0.0
2016-Jun-22 22:31N 51°15' E 004°24'0 0.0
2016-Jun-22 21:31N 51°15' E 004°24'0 0.0
2016-Jun-22 20:31N 51°15' E 004°24'0 0.0
2016-Jun-22 19:31N 51°15' E 004°24'0 0.0
2016-Jun-22 18:31N 51°15' E 004°24'0 0.0
2016-Jun-22 17:31N 51°15' E 004°24'0 0.0
2016-Jun-22 16:31N 51°15' E 004°24'0 0.0
2016-Jun-22 15:31N 51°15' E 004°24'0 0.0
2016-Jun-22 14:31N 51°15' E 004°24'0 0.0
2016-Jun-22 13:31N 51°15' E 004°24'0 0.0
2016-Jun-22 12:31N 51°15' E 004°24'0 0.0
2016-Jun-22 11:28N 51°15' E 004°24'0 0.0
2016-Jun-22 10:31N 51°15' E 004°24'0 0.0
2016-Jun-22 09:31N 51°15' E 004°24'0 0.0
2016-Jun-22 08:31N 51°15' E 004°24'0 0.0
2016-Jun-22 07:31N 51°15' E 004°24'0 0.0
2016-Jun-22 06:31N 51°15' E 004°24'0 0.0
2016-Jun-22 05:31N 51°15' E 004°24'0 0.0
2016-Jun-22 04:31N 51°15' E 004°24'0 0.0
2016-Jun-22 03:31N 51°15' E 004°24'0 0.0
2016-Jun-22 02:31N 51°15' E 004°24'0 0.0
2016-Jun-22 01:31N 51°15' E 004°24'0 0.0
2016-Jun-22 00:31N 51°15' E 004°24'0 0.0
2016-Jun-21 23:31N 51°15' E 004°24'0 0.0
2016-Jun-21 22:31N 51°15' E 004°24'0 0.0
2016-Jun-21 21:31N 51°15' E 004°24'0 0.0
2016-Jun-21 20:31N 51°15' E 004°24'0 0.0
2016-Jun-21 19:31N 51°15' E 004°24'0 0.0
2016-Jun-21 18:31N 51°15' E 004°24'0 0.0
2016-Jun-21 17:31N 51°15' E 004°24'0 0.0
2016-Jun-21 16:31N 51°15' E 004°24'0 0.0
2016-Jun-21 15:31N 51°15' E 004°24'0 0.0
2016-Jun-21 14:31N 51°15' E 004°24'0 0.0
2016-Jun-21 13:31N 51°15' E 004°24'0 0.0
2016-Jun-21 12:31N 51°15' E 004°24'0 0.0
2016-Jun-21 11:31N 51°15' E 004°24'0 0.0
2016-Jun-21 10:31N 51°15' E 004°24'0 0.0
2016-Jun-21 09:31N 51°15' E 004°24'0 0.0
2016-Jun-21 08:31N 51°15' E 004°24'0 0.0
2016-Jun-21 07:31N 51°15' E 004°24'0 0.0
2016-Jun-21 06:31N 51°15' E 004°24'0 0.0
2016-Jun-21 04:31N 51°15' E 004°24'0 0.0
2016-Jun-21 03:31N 51°15' E 004°24'0 0.0
2016-Jun-21 02:31N 51°15' E 004°24'0 0.0
2016-Jun-21 01:31N 51°15' E 004°24'0 0.0
2016-Jun-21 00:31N 51°15' E 004°24'0 0.0
2016-Jun-20 23:31N 51°15' E 004°24'  
Track history (hours):
 
Tides and Currents Weather Stations Pressure Air Temp Water Temp Dewpoint Dewpoint Depression Visibility Wind Speed Wind Dir Waves Ship Positions

Hc Nadja Maria

Last reported at 2016-Jun-30 22:33 UTC. Time now 2016-Jun-30 23:10 UTC.
Position N 54°01' E 007°49'.

Length 130 m; draft 7.3 m.

Type: Cargo ship. MMSI: 304204000.

Date/timePositionNaut miles runAvg speedWind from/ knotsBaromVisibWave heightAir tempDewpointWater temp
2016-Jun-30 22:33N 54°01' E 007°49'1414.3
2016-Jun-30 21:33N 54°01' E 008°14'1413.6
2016-Jun-30 20:31N 53°58' E 008°37'1010.9
2016-Jun-30 19:33N 53°50' E 008°50'1110.9
2016-Jun-30 18:34N 53°53' E 009°08'9 9.3
2016-Jun-30 17:33N 53°49' E 009°22'1413.6
2016-Jun-30 16:33N 53°37' E 009°34'1212.4
2016-Jun-30 15:33N 53°33' E 009°53'3 3.3
2016-Jun-30 14:31N 53°32' E 009°59'0 0.0
2016-Jun-30 13:31N 53°32' E 009°59'0 0.0
2016-Jun-30 12:31N 53°32' E 009°59'0 0.0
2016-Jun-30 11:31N 53°32' E 009°59'0 0.0
2016-Jun-30 10:31N 53°32' E 009°59'0 0.0
2016-Jun-30 09:31N 53°32' E 009°59'0 0.0
2016-Jun-30 08:31N 53°32' E 009°59'0 0.0
2016-Jun-30 07:31N 53°32' E 009°59'0 0.0
2016-Jun-30 06:31N 53°32' E 009°59'0 0.0
2016-Jun-30 05:31N 53°32' E 009°59'0 0.0
2016-Jun-30 04:31N 53°32' E 009°59'0 0.0
2016-Jun-30 03:31N 53°32' E 009°59'0 0.0
2016-Jun-30 02:31N 53°32' E 009°59'0 0.0
2016-Jun-30 01:31N 53°32' E 009°59'0 0.0
2016-Jun-30 00:31N 53°32' E 009°59'0 0.0
2016-Jun-29 23:31N 53°32' E 009°59'0 0.0
2016-Jun-29 22:31N 53°32' E 009°59'0 0.0
2016-Jun-29 21:31N 53°32' E 009°59'0 0.0
2016-Jun-29 20:31N 53°32' E 009°59'0 0.0
2016-Jun-29 19:31N 53°32' E 009°59'0 0.0
2016-Jun-29 18:31N 53°32' E 009°59'0 0.0
2016-Jun-29 17:31N 53°32' E 009°59'0 0.0
2016-Jun-29 16:31N 53°32' E 009°59'0 0.0
2016-Jun-29 15:31N 53°32' E 009°59'0 0.0
2016-Jun-29 14:31N 53°32' E 009°59'0 0.0
2016-Jun-29 13:31N 53°32' E 009°59'0 0.0
2016-Jun-29 12:31N 53°32' E 009°59'0 0.0
2016-Jun-29 11:31N 53°32' E 009°59'0 0.0
2016-Jun-29 10:31N 53°32' E 009°59'0 0.0
2016-Jun-29 09:31N 53°32' E 009°59'0 0.1
2016-Jun-29 08:34N 53°32' E 009°59'9 8.6
2016-Jun-29 07:34N 53°34' E 009°45'1312.7
2016-Jun-29 06:34N 53°42' E 009°29'1515.1
2016-Jun-29 05:33N 53°53' E 009°11'1515.1
2016-Jun-29 04:33N 53°51' E 008°45'1515.2
2016-Jun-29 03:33N 53°59' E 008°23'1111.0
2016-Jun-29 02:33N 53°60' E 008°05'3 2.8
2016-Jun-29 01:26N 54°02' E 008°08'0 0.1
2016-Jun-29 00:29N 54°02' E 008°08'0 0.0
2016-Jun-28 23:32N 54°02' E 008°08'0 0.0
2016-Jun-28 22:32N 54°02' E 008°08'0 0.0
2016-Jun-28 21:32N 54°02' E 008°08'1 1.5
2016-Jun-28 20:33N 54°02' E 008°05'1212.2
2016-Jun-28 19:33N 53°57' E 007°46'1312.6
2016-Jun-28 18:33N 53°54' E 007°26'1313.0
2016-Jun-28 17:33N 53°51' E 007°04'1313.4
2016-Jun-28 16:34N 53°48' E 006°42'1414.0
2016-Jun-28 15:33N 53°44' E 006°19'1414.4
2016-Jun-28 14:33N 53°39' E 005°56'1514.9
2016-Jun-28 13:33N 53°35' E 005°32'1515.1
2016-Jun-28 12:34N 53°30' E 005°08'3514.7
2016-Jun-28 10:12N 53°06' E 004°26'1115.6
2016-Jun-28 09:32N 52°57' E 004°18'1715.3
2016-Jun-28 08:23N 52°42' E 004°02'1815.0
2016-Jun-28 07:10N 52°29' E 003°42'4114.1
2016-Jun-28 04:16N 51°50' E 003°19'1210.2
2016-Jun-28 03:07N 51°38' E 003°21'711.8
2016-Jun-28 02:33N 51°32' E 003°25'9 9.2
2016-Jun-28 01:34N 51°26' E 003°36'1212.1
2016-Jun-28 00:33N 51°22' E 003°54'1010.2
2016-Jun-27 23:34N 51°24' E 004°10'5 5.2
2016-Jun-27 22:34N 51°21' E 004°17'0 0.0
2016-Jun-27 21:33N 51°21' E 004°17'1 0.8
2016-Jun-27 20:33N 51°20' E 004°18'6 5.6
2016-Jun-27 19:33N 51°16' E 004°23'0 0.3
2016-Jun-27 18:31N 51°15' E 004°24'0 0.0
2016-Jun-27 17:31N 51°15' E 004°24'0 0.0
2016-Jun-27 16:31N 51°15' E 004°24'0 0.0
2016-Jun-27 15:31N 51°15' E 004°24'0 0.0
2016-Jun-27 14:31N 51°15' E 004°24'0 0.0
2016-Jun-27 13:31N 51°15' E 004°24'0 0.0
2016-Jun-27 12:31N 51°15' E 004°24'0 0.0
2016-Jun-27 11:31N 51°15' E 004°24'0 0.0
2016-Jun-27 10:31N 51°15' E 004°24'0 0.0
2016-Jun-27 09:31N 51°15' E 004°24'0 0.0
2016-Jun-27 08:31N 51°15' E 004°24'0 0.0
2016-Jun-27 07:31N 51°15' E 004°24'0 0.0
2016-Jun-27 06:31N 51°15' E 004°24'0 0.0
2016-Jun-27 05:31N 51°15' E 004°24'0 0.0
2016-Jun-27 04:31N 51°15' E 004°24'0 0.0
2016-Jun-27 03:31N 51°15' E 004°24'0 0.0
2016-Jun-27 02:31N 51°15' E 004°24'0 0.0
2016-Jun-27 01:31N 51°15' E 004°24'0 0.0
2016-Jun-27 00:31N 51°15' E 004°24'0 0.0
2016-Jun-26 23:31N 51°15' E 004°24'0 0.0
2016-Jun-26 22:31N 51°15' E 004°24'0 0.0
2016-Jun-26 21:31N 51°15' E 004°24'0 0.0
2016-Jun-26 20:31N 51°15' E 004°24'0 0.0
2016-Jun-26 19:31N 51°15' E 004°24'0 0.0
2016-Jun-26 18:31N 51°15' E 004°24'0 0.0
2016-Jun-26 17:28N 51°15' E 004°24'0 0.0
2016-Jun-26 16:31N 51°15' E 004°24'0 0.0
2016-Jun-26 15:31N 51°15' E 004°24'0 0.0
2016-Jun-26 14:31N 51°15' E 004°24'0 0.0
2016-Jun-26 13:31N 51°15' E 004°24'0 0.0
2016-Jun-26 12:31N 51°15' E 004°24'0 0.0
2016-Jun-26 11:31N 51°15' E 004°24'0 0.0
2016-Jun-26 10:31N 51°15' E 004°24'0 0.0
2016-Jun-26 09:31N 51°15' E 004°24'0 0.0
2016-Jun-26 08:31N 51°15' E 004°24'0 0.0
2016-Jun-26 07:31N 51°15' E 004°24'0 0.0
2016-Jun-26 06:31N 51°15' E 004°24'0 0.0
2016-Jun-26 05:31N 51°15' E 004°24'0 0.0
2016-Jun-26 04:31N 51°15' E 004°24'0 0.0
2016-Jun-26 03:31N 51°15' E 004°24'0 0.0
2016-Jun-26 02:31N 51°15' E 004°24'0 0.0
2016-Jun-26 01:31N 51°15' E 004°24'0 0.0
2016-Jun-26 00:31N 51°15' E 004°24'0 0.0
2016-Jun-25 23:31N 51°15' E 004°24'0 0.0
2016-Jun-25 22:31N 51°15' E 004°24'0 0.0
2016-Jun-25 21:31N 51°15' E 004°24'0 0.0
2016-Jun-25 20:31N 51°15' E 004°24'0 0.0
2016-Jun-25 19:31N 51°15' E 004°24'0 0.0
2016-Jun-25 18:31N 51°15' E 004°24'0 0.0
2016-Jun-25 17:31N 51°15' E 004°24'0 0.0
2016-Jun-25 16:31N 51°15' E 004°24'0 0.0
2016-Jun-25 15:31N 51°15' E 004°24'0 0.0
2016-Jun-25 14:31N 51°15' E 004°24'0 0.0
2016-Jun-25 13:31N 51°15' E 004°24'0 0.0
2016-Jun-25 12:28N 51°15' E 004°24'0 0.0
2016-Jun-25 11:31N 51°15' E 004°24'0 0.0
2016-Jun-25 10:31N 51°15' E 004°24'0 0.0
2016-Jun-25 09:31N 51°15' E 004°24'0 0.0
2016-Jun-25 08:31N 51°15' E 004°24'0 0.0
2016-Jun-25 07:31N 51°15' E 004°24'0 0.0
2016-Jun-25 06:31N 51°15' E 004°24'0 0.0
2016-Jun-25 05:31N 51°15' E 004°24'0 0.0
2016-Jun-25 04:31N 51°15' E 004°24'0 0.0
2016-Jun-25 03:31N 51°15' E 004°24'0 0.0
2016-Jun-25 02:31N 51°15' E 004°24'0 0.0
2016-Jun-25 01:31N 51°15' E 004°24'0 0.0
2016-Jun-25 00:31N 51°15' E 004°24'0 0.0
2016-Jun-24 23:31N 51°15' E 004°24'0 0.0
2016-Jun-24 22:31N 51°15' E 004°24'0 0.0
2016-Jun-24 21:31N 51°15' E 004°24'0 0.0
2016-Jun-24 20:31N 51°15' E 004°24'0 0.0
2016-Jun-24 19:31N 51°15' E 004°24'0 0.0
2016-Jun-24 18:31N 51°15' E 004°24'0 0.0
2016-Jun-24 17:31N 51°15' E 004°24'0 0.0
2016-Jun-24 16:31N 51°15' E 004°24'0 0.0
2016-Jun-24 15:31N 51°15' E 004°24'0 0.0
2016-Jun-24 14:31N 51°15' E 004°24'0 0.0
2016-Jun-24 13:31N 51°15' E 004°24'0 0.0
2016-Jun-24 12:31N 51°15' E 004°24'0 0.0
2016-Jun-24 11:31N 51°15' E 004°24'0 0.0
2016-Jun-24 10:31N 51°15' E 004°24'0 0.0
2016-Jun-24 09:31N 51°15' E 004°24'0 0.0
2016-Jun-24 08:31N 51°15' E 004°24'0 0.0
2016-Jun-24 07:31N 51°15' E 004°24'0 0.0
2016-Jun-24 04:31N 51°15' E 004°24'0 0.0
2016-Jun-24 03:31N 51°15' E 004°24'0 0.0
2016-Jun-24 02:31N 51°15' E 004°24'0 0.0
2016-Jun-24 01:31N 51°15' E 004°24'0 0.0
2016-Jun-24 00:31N 51°15' E 004°24'0 0.0
2016-Jun-23 23:31N 51°15' E 004°24'0 0.0
2016-Jun-23 22:31N 51°15' E 004°24'0 0.0
2016-Jun-23 21:31N 51°15' E 004°24'0 0.0
2016-Jun-23 20:28N 51°15' E 004°24'0 0.0
2016-Jun-23 19:31N 51°15' E 004°24'0 0.0
2016-Jun-23 18:31N 51°15' E 004°24'0 0.0
2016-Jun-23 17:31N 51°15' E 004°24'0 0.0
2016-Jun-23 16:31N 51°15' E 004°24'0 0.0
2016-Jun-23 15:28N 51°15' E 004°24'0 0.0
2016-Jun-23 14:31N 51°15' E 004°24'0 0.0
2016-Jun-23 13:31N 51°15' E 004°24'0 0.0
2016-Jun-23 12:31N 51°15' E 004°24'0 0.0
2016-Jun-23 11:31N 51°15' E 004°24'0 0.0
2016-Jun-23 10:31N 51°15' E 004°24'0 0.0
2016-Jun-23 09:31N 51°15' E 004°24'0 0.0
2016-Jun-23 08:31N 51°15' E 004°24'0 0.0
2016-Jun-23 07:31N 51°15' E 004°24'0 0.0
2016-Jun-23 05:31N 51°15' E 004°24'0 0.0
2016-Jun-23 04:31N 51°15' E 004°24'0 0.0
2016-Jun-23 03:31N 51°15' E 004°24'0 0.0
2016-Jun-23 02:31N 51°15' E 004°24'0 0.0
2016-Jun-23 01:31N 51°15' E 004°24'0 0.0
2016-Jun-23 00:31N 51°15' E 004°24'0 0.0
2016-Jun-22 23:31N 51°15' E 004°24'0 0.0
2016-Jun-22 22:31N 51°15' E 004°24'0 0.0
2016-Jun-22 21:31N 51°15' E 004°24'0 0.0
2016-Jun-22 20:31N 51°15' E 004°24'0 0.0
2016-Jun-22 19:31N 51°15' E 004°24'0 0.0
2016-Jun-22 18:31N 51°15' E 004°24'0 0.0
2016-Jun-22 17:31N 51°15' E 004°24'0 0.0
2016-Jun-22 16:31N 51°15' E 004°24'0 0.0
2016-Jun-22 15:31N 51°15' E 004°24'0 0.0
2016-Jun-22 14:31N 51°15' E 004°24'0 0.0
2016-Jun-22 13:31N 51°15' E 004°24'0 0.0
2016-Jun-22 12:31N 51°15' E 004°24'0 0.0
2016-Jun-22 11:28N 51°15' E 004°24'0 0.0
2016-Jun-22 10:31N 51°15' E 004°24'0 0.0
2016-Jun-22 09:31N 51°15' E 004°24'0 0.0
2016-Jun-22 08:31N 51°15' E 004°24'0 0.0
2016-Jun-22 07:31N 51°15' E 004°24'0 0.0
2016-Jun-22 06:31N 51°15' E 004°24'0 0.0
2016-Jun-22 05:31N 51°15' E 004°24'0 0.0
2016-Jun-22 04:31N 51°15' E 004°24'0 0.0
2016-Jun-22 03:31N 51°15' E 004°24'0 0.0
2016-Jun-22 02:31N 51°15' E 004°24'0 0.0
2016-Jun-22 01:31N 51°15' E 004°24'0 0.0
2016-Jun-22 00:31N 51°15' E 004°24'0 0.0
2016-Jun-21 23:31N 51°15' E 004°24'0 0.0
2016-Jun-21 22:31N 51°15' E 004°24'0 0.0
2016-Jun-21 21:31N 51°15' E 004°24'0 0.0
2016-Jun-21 20:31N 51°15' E 004°24'0 0.0
2016-Jun-21 19:31N 51°15' E 004°24'0 0.0
2016-Jun-21 18:31N 51°15' E 004°24'0 0.0
2016-Jun-21 17:31N 51°15' E 004°24'0 0.0
2016-Jun-21 16:31N 51°15' E 004°24'0 0.0
2016-Jun-21 15:31N 51°15' E 004°24'0 0.0
2016-Jun-21 14:31N 51°15' E 004°24'0 0.0
2016-Jun-21 13:31N 51°15' E 004°24'0 0.0
2016-Jun-21 12:31N 51°15' E 004°24'0 0.0
2016-Jun-21 11:31N 51°15' E 004°24'0 0.0
2016-Jun-21 10:31N 51°15' E 004°24'0 0.0
2016-Jun-21 09:31N 51°15' E 004°24'0 0.0
2016-Jun-21 08:31N 51°15' E 004°24'0 0.0
2016-Jun-21 07:31N 51°15' E 004°24'0 0.0
2016-Jun-21 06:31N 51°15' E 004°24'0 0.0
2016-Jun-21 04:31N 51°15' E 004°24'0 0.0
2016-Jun-21 03:31N 51°15' E 004°24'0 0.0
2016-Jun-21 02:31N 51°15' E 004°24'0 0.0
2016-Jun-21 01:31N 51°15' E 004°24'0 0.0
2016-Jun-21 00:31N 51°15' E 004°24'0 0.0
2016-Jun-20 23:31N 51°15' E 004°24'  

Dump ship's entire track history